Time;durP1;ratioP1;P1;durP2;ratioP2;P2;SDS_P1;SDS_P2;PMS_P1;PMS_P2;Temp;Humidity;BMP_temperature;BMP_pressure;BME280_temperature;BME280_humidity;BME280_pressure;Samples;Min_cycle;Max_cycle;Signal;HPM_P1;HPM_P2
2021/12/05 00:21:40;;;;;;;;;;;;;;;3.85;nan;99232.97;5066103;28;19956;-88
2021/12/05 00:24:12;;;;;;;;;;;;;;;3.80;nan;99224.72;5075373;28;19923;-88
2021/12/05 00:26:38;;;;;;;;;;;;;;;3.83;nan;99220.00;5069616;28;19970;-89
2021/12/05 00:31:51;;;;;;;;;;;;;;;3.83;nan;99221.81;5064354;28;19972;-88
2021/12/05 00:34:53;;;;;;;;;;;;;;;3.82;nan;99233.25;5038986;28;19928;-88
2021/12/05 00:48:26;;;;;;;;;;;;;;;3.82;nan;99223.59;5083595;28;19921;-87
2021/12/05 00:51:20;;;;;;;;;;;;;;;3.86;nan;99226.75;5083317;28;19984;-87
2021/12/05 00:56:40;;;;;;;;;;;;;;;3.84;nan;99233.94;5070956;28;19923;-87
2021/12/05 01:10:17;;;;;;;;;;;;;;;3.77;nan;99248.53;5064244;28;20006;-88
2021/12/05 01:12:59;;;;;;;;;;;;;;;3.76;nan;99250.31;5087333;28;19923;-88
2021/12/05 01:15:33;;;;;;;;;;;;;;;3.70;nan;99252.66;5080584;28;19947;-89
2021/12/05 01:20:26;;;;;;;;;;;;;;;3.72;nan;99271.63;5081089;28;19917;-89
2021/12/05 01:23:03;;;;;;;;;;;;;;;3.84;nan;99270.53;5079454;28;19922;-88
2021/12/05 01:25:44;;;;;;;;;;;;;;;3.85;nan;99264.34;5078866;28;19943;-88
2021/12/05 01:54:36;;;;;;;;;;;;;;;3.46;nan;99263.56;5079653;28;19944;-89
2021/12/05 02:42:58;;;;;;;;;;;;;;;3.65;nan;99232.16;5083400;28;19916;-89
2021/12/05 02:45:13;;;;;;;;;;;;;;;3.65;nan;99234.78;5080179;28;19979;-89
2021/12/05 02:47:41;;;;;;;;;;;;;;;3.67;nan;99235.47;5064215;28;19917;-89
2021/12/05 02:50:10;;;;;;;;;;;;;;;3.69;nan;99232.69;5047466;28;19916;-89
2021/12/05 02:52:38;;;;;;;;;;;;;;;3.68;nan;99231.88;5059366;28;19950;-89
2021/12/05 02:55:29;;;;;;;;;;;;;;;3.69;nan;99232.69;5065497;28;19920;-88
2021/12/05 02:58:00;;;;;;;;;;;;;;;3.74;nan;99236.56;5064805;28;20427;-89
2021/12/05 03:00:44;;;;;;;;;;;;;;;3.73;nan;99237.53;5063523;28;19916;-89
2021/12/05 03:03:18;;;;;;;;;;;;;;;3.59;nan;99233.53;5064830;28;19920;-89
2021/12/05 03:05:48;;;;;;;;;;;;;;;3.60;nan;99240.44;5068855;28;19932;-88
2021/12/05 03:08:14;;;;;;;;;;;;;;;3.57;nan;99234.63;5064598;28;19917;-88
2021/12/05 03:10:40;;;;;;;;;;;;;;;3.57;nan;99232.03;5064426;28;19917;-89
2021/12/05 03:13:06;;;;;;;;;;;;;;;3.58;nan;99231.91;5064842;28;19916;-88
2021/12/05 03:15:32;;;;;;;;;;;;;;;3.61;nan;99221.16;5063903;28;19921;-89
2021/12/05 03:17:58;;;;;;;;;;;;;;;3.57;nan;99218.97;5065911;28;19916;-88
2021/12/05 03:20:24;;;;;;;;;;;;;;;3.51;nan;99220.34;5064997;28;19938;-89
2021/12/05 03:22:50;;;;;;;;;;;;;;;3.52;nan;99216.75;5064787;28;20191;-88
2021/12/05 03:25:16;;;;;;;;;;;;;;;3.47;nan;99221.59;5076634;28;19925;-90
2021/12/05 03:27:42;;;;;;;;;;;;;;;3.45;nan;99218.28;5064663;28;19916;-89
2021/12/05 03:30:09;;;;;;;;;;;;;;;3.47;nan;99211.13;5064243;28;19916;-89
2021/12/05 03:32:35;;;;;;;;;;;;;;;3.32;nan;99215.13;5085447;28;19920;-89
2021/12/05 03:35:02;;;;;;;;;;;;;;;3.38;nan;99209.34;5081780;28;19920;-89
2021/12/05 03:37:28;;;;;;;;;;;;;;;3.35;nan;99207.81;5064747;28;19920;-89
2021/12/05 03:39:54;;;;;;;;;;;;;;;3.42;nan;99208.09;5078684;28;19959;-89
2021/12/05 03:42:20;;;;;;;;;;;;;;;3.45;nan;99201.78;5065514;28;19920;-89
2021/12/05 03:44:45;;;;;;;;;;;;;;;3.50;nan;99202.19;5064727;28;19923;-88
2021/12/05 03:47:18;;;;;;;;;;;;;;;3.50;nan;99205.63;5064733;28;19920;-88
2021/12/05 03:49:44;;;;;;;;;;;;;;;3.55;nan;99199.97;5083297;28;19922;-89
2021/12/05 03:52:12;;;;;;;;;;;;;;;3.51;nan;99201.25;5082904;28;19920;-89
2021/12/05 03:54:39;;;;;;;;;;;;;;;3.45;nan;99194.75;5102539;28;19916;-89
2021/12/05 03:57:04;;;;;;;;;;;;;;;3.38;nan;99202.34;5067252;28;19923;-89
2021/12/05 03:59:30;;;;;;;;;;;;;;;3.33;nan;99201.91;5063183;28;19925;-89
2021/12/05 04:01:56;;;;;;;;;;;;;;;3.34;nan;99202.75;5063640;28;19983;-88
2021/12/05 04:04:21;;;;;;;;;;;;;;;3.28;nan;99209.34;5081399;28;19925;-89
2021/12/05 04:06:47;;;;;;;;;;;;;;;3.26;nan;99207.84;5081452;28;19978;-89
2021/12/05 04:09:13;;;;;;;;;;;;;;;3.27;nan;99206.88;5063214;28;19970;-89
2021/12/05 04:11:42;;;;;;;;;;;;;;;3.17;nan;99202.47;5063771;28;19927;-89
2021/12/05 04:14:10;;;;;;;;;;;;;;;3.21;nan;99194.38;5081240;28;19917;-89
2021/12/05 04:16:35;;;;;;;;;;;;;;;3.15;nan;99195.75;5077105;28;19916;-89
2021/12/05 04:19:01;;;;;;;;;;;;;;;3.10;nan;99177.03;5102067;28;20402;-88
2021/12/05 04:21:26;;;;;;;;;;;;;;;3.04;nan;99180.19;5083705;28;19916;-89
2021/12/05 04:23:52;;;;;;;;;;;;;;;2.94;nan;99183.63;5083714;28;20294;-89
2021/12/05 04:26:17;;;;;;;;;;;;;;;2.95;nan;99176.63;5083073;28;19920;-89
2021/12/05 04:28:43;;;;;;;;;;;;;;;2.94;nan;99180.19;5076662;28;19920;-87
2021/12/05 04:31:11;;;;;;;;;;;;;;;2.95;nan;99182.66;5063853;28;19916;-88
2021/12/05 04:33:37;;;;;;;;;;;;;;;2.92;nan;99176.91;5062691;28;19917;-88
2021/12/05 04:36:03;;;;;;;;;;;;;;;2.92;nan;99182.13;5062587;28;19938;-88
2021/12/05 04:38:29;;;;;;;;;;;;;;;2.88;nan;99188.56;5080877;28;19959;-88
2021/12/05 04:40:54;;;;;;;;;;;;;;;2.83;nan;99185.53;5071488;28;19920;-88
2021/12/05 04:43:19;;;;;;;;;;;;;;;2.79;nan;99184.16;5088183;28;19921;-88
2021/12/05 04:45:45;;;;;;;;;;;;;;;2.85;nan;99183.63;5062419;28;19935;-89
2021/12/05 04:48:10;;;;;;;;;;;;;;;2.93;nan;99186.38;5063104;28;19927;-89
2021/12/05 04:50:37;;;;;;;;;;;;;;;2.97;nan;99185.13;5062445;28;19985;-88
2021/12/05 04:53:03;;;;;;;;;;;;;;;2.98;nan;99192.03;5063293;28;19917;-88
2021/12/05 04:55:28;;;;;;;;;;;;;;;3.01;nan;99191.75;5062749;28;19917;-90
2021/12/05 04:57:54;;;;;;;;;;;;;;;3.01;nan;99191.75;5080294;28;19920;-89
2021/12/05 05:00:38;;;;;;;;;;;;;;;3.04;nan;99196.69;5062823;28;19924;-88
2021/12/05 05:03:06;;;;;;;;;;;;;;;3.02;nan;99190.78;5062893;28;20000;-90
2021/12/05 05:05:33;;;;;;;;;;;;;;;3.08;nan;99190.25;5062237;28;19924;-89
2021/12/05 05:07:59;;;;;;;;;;;;;;;3.12;nan;99196.00;5062935;28;19916;-88
2021/12/05 05:10:27;;;;;;;;;;;;;;;3.10;nan;99195.31;5062686;28;20448;-89
2021/12/05 05:12:52;;;;;;;;;;;;;;;3.15;nan;99199.19;5081026;28;19917;-88
2021/12/05 05:15:22;;;;;;;;;;;;;;;3.13;nan;99198.50;5085065;28;19944;-88
2021/12/05 05:17:49;;;;;;;;;;;;;;;3.12;nan;99204.69;5083087;28;20002;-89
2021/12/05 05:20:25;;;;;;;;;;;;;;;3.15;nan;99198.34;5082523;28;19958;-89
2021/12/05 05:40:06;;;;;;;;;;;;;;;3.18;nan;99198.91;5061795;28;20341;-89
2021/12/05 05:44:43;;;;;;;;;;;;;;;3.12;nan;99190.78;5085479;28;19955;-90
2021/12/05 05:47:14;;;;;;;;;;;;;;;3.12;nan;99203.84;5062939;28;19945;-90
2021/12/05 05:52:11;;;;;;;;;;;;;;;3.12;nan;99207.28;5081324;28;19924;-89
2021/12/05 05:54:36;;;;;;;;;;;;;;;3.14;nan;99207.97;5067640;28;19920;-88
2021/12/05 05:57:13;;;;;;;;;;;;;;;3.17;nan;99215.53;5079962;28;19924;-88
2021/12/05 05:59:42;;;;;;;;;;;;;;;3.18;nan;99209.34;5043584;28;19927;-88
2021/12/05 06:04:32;;;;;;;;;;;;;;;3.14;nan;99213.19;5079064;28;20345;-89
2021/12/05 06:06:58;;;;;;;;;;;;;;;3.03;nan;99205.50;5062404;28;19924;-89
2021/12/05 06:09:23;;;;;;;;;;;;;;;3.03;nan;99195.06;5063710;28;19924;-89
2021/12/05 06:11:48;;;;;;;;;;;;;;;3.01;nan;99201.38;5062787;28;19962;-88
2021/12/05 06:14:14;;;;;;;;;;;;;;;2.92;nan;99203.81;5061920;28;19917;-89
2021/12/05 06:16:39;;;;;;;;;;;;;;;2.98;nan;99208.50;5063353;28;19917;-89
2021/12/05 06:19:04;;;;;;;;;;;;;;;3.02;nan;99211.66;5063809;28;19916;-89
2021/12/05 06:21:29;;;;;;;;;;;;;;;3.08;nan;99218.97;5080146;28;19920;-90
2021/12/05 06:23:55;;;;;;;;;;;;;;;3.09;nan;99218.00;5081452;28;19924;-89
2021/12/05 06:26:23;;;;;;;;;;;;;;;3.16;nan;99219.09;5063903;28;19924;-89
2021/12/05 06:29:02;;;;;;;;;;;;;;;3.17;nan;99226.00;5066699;28;19943;-89
2021/12/05 06:47:23;;;;;;;;;;;;;;;3.18;nan;99218.97;5060836;28;19990;-89
2021/12/05 06:49:49;;;;;;;;;;;;;;;3.23;nan;99232.44;5060075;28;19923;-89
2021/12/05 06:52:15;;;;;;;;;;;;;;;3.31;nan;99236.97;5062301;28;19917;-89
2021/12/05 06:54:40;;;;;;;;;;;;;;;3.34;nan;99234.13;5062553;28;19963;-88
2021/12/05 06:57:06;;;;;;;;;;;;;;;3.34;nan;99228.88;5059219;28;19917;-90
2021/12/05 06:59:32;;;;;;;;;;;;;;;3.40;nan;99239.59;5061548;28;19940;-89
2021/12/05 07:01:57;;;;;;;;;;;;;;;3.46;nan;99235.63;5060845;28;19920;-90
2021/12/05 07:04:49;;;;;;;;;;;;;;;3.52;nan;99237.66;5059307;28;19920;-89
2021/12/05 07:07:23;;;;;;;;;;;;;;;3.57;nan;99243.31;5061495;28;20283;-88
2021/12/05 07:09:52;;;;;;;;;;;;;;;3.68;nan;99236.28;5061773;28;19925;-89
2021/12/05 07:15:42;;;;;;;;;;;;;;;3.50;nan;99239.59;5084833;28;19927;-89
2021/12/05 07:42:42;;;;;;;;;;;;;;;3.79;nan;99272.72;5045135;28;19971;-89
2021/12/05 07:45:14;;;;;;;;;;;;;;;3.75;nan;99272.19;5061837;28;20367;-89
2021/12/05 07:47:44;;;;;;;;;;;;;;;3.76;nan;99267.78;5065433;28;19965;-89
2021/12/05 07:50:11;;;;;;;;;;;;;;;3.76;nan;99278.25;5078638;28;20347;-89
2021/12/05 07:52:40;;;;;;;;;;;;;;;3.84;nan;99281.00;5082434;28;20019;-89
2021/12/05 07:55:16;;;;;;;;;;;;;;;3.81;nan;99279.50;5083494;28;19968;-90
2021/12/05 07:58:11;;;;;;;;;;;;;;;3.87;nan;99288.56;5066179;28;19917;-89
2021/12/05 08:16:34;;;;;;;;;;;;;;;4.08;nan;99288.41;5082598;28;19924;-90
2021/12/05 08:18:59;;;;;;;;;;;;;;;4.09;nan;99281.38;5067301;28;19916;-90
2021/12/05 08:21:25;;;;;;;;;;;;;;;4.11;nan;99275.03;5066965;28;19924;-89
2021/12/05 08:23:50;;;;;;;;;;;;;;;4.13;nan;99273.09;5066059;28;19924;-90
2021/12/05 08:26:20;;;;;;;;;;;;;;;4.17;nan;99273.63;5066284;28;19921;-89
2021/12/05 08:31:39;;;;;;;;;;;;;;;4.15;nan;99272.97;5066119;28;19916;-89
2021/12/05 09:29:21;;;;;;;;;;;;;;;4.67;nan;99318.69;5104412;28;19923;-89
2021/12/05 09:51:24;;;;;;;;;;;;;;;4.87;nan;99322.03;5086426;28;19983;-89
2021/12/05 10:02:22;;;;;;;;;;;;;;;4.83;nan;99315.41;5092451;28;19923;-90
2021/12/05 10:10:40;;;;;;;;;;;;;;;4.77;nan;99315.19;5039985;28;19917;-87
2021/12/05 10:16:06;;;;;;;;;;;;;;;4.71;nan;99313.16;5063950;28;19916;-87
2021/12/05 10:37:21;;;;;;;;;;;;;;;4.91;nan;99312.09;5084806;28;19943;-88
2021/12/05 10:40:07;;;;;;;;;;;;;;;4.93;nan;99301.47;5066860;28;19939;-88
2021/12/05 10:42:53;;;;;;;;;;;;;;;4.86;nan;99309.91;5079995;28;19920;-87
2021/12/05 10:45:35;;;;;;;;;;;;;;;4.93;nan;99312.75;5080674;28;19920;-88
2021/12/05 10:48:05;;;;;;;;;;;;;;;4.88;nan;99310.56;5086141;28;19920;-87
2021/12/05 10:50:33;;;;;;;;;;;;;;;4.88;nan;99315.81;5072553;28;19926;-87
2021/12/05 10:53:21;;;;;;;;;;;;;;;4.85;nan;99310.88;5092120;28;19931;-87
2021/12/05 10:55:53;;;;;;;;;;;;;;;4.87;nan;99316.78;5084917;28;19959;-87
2021/12/05 10:58:19;;;;;;;;;;;;;;;4.94;nan;99317.03;5069806;28;19916;-87
2021/12/05 11:00:44;;;;;;;;;;;;;;;4.99;nan;99316.59;5083053;28;19920;-88
2021/12/05 11:03:13;;;;;;;;;;;;;;;5.00;nan;99316.44;5079521;28;19924;-88
2021/12/05 11:05:39;;;;;;;;;;;;;;;4.95;nan;99310.00;5083393;28;19924;-88
2021/12/05 11:08:24;;;;;;;;;;;;;;;4.96;nan;99303.78;5068376;28;19973;-87
2021/12/05 11:10:50;;;;;;;;;;;;;;;5.08;nan;99310.50;5087071;28;19922;-87
2021/12/05 11:13:25;;;;;;;;;;;;;;;5.13;nan;99302.19;5067690;28;19923;-87
2021/12/05 11:15:51;;;;;;;;;;;;;;;5.31;nan;99310.88;5087256;28;19984;-87
2021/12/05 11:18:36;;;;;;;;;;;;;;;5.44;nan;99300.06;5069936;28;19928;-88
2021/12/05 11:21:21;;;;;;;;;;;;;;;5.47;nan;99307.63;5067788;28;19916;-88
2021/12/05 11:24:02;;;;;;;;;;;;;;;5.54;nan;99313.91;5064320;28;19969;-86
2021/12/05 11:26:29;;;;;;;;;;;;;;;5.52;nan;99303.56;5090704;28;19920;-87
2021/12/05 11:28:55;;;;;;;;;;;;;;;5.64;nan;99303.34;5087457;28;19995;-87
2021/12/05 11:31:28;;;;;;;;;;;;;;;5.69;nan;99308.97;5068514;28;19951;-87
2021/12/05 11:33:56;;;;;;;;;;;;;;;5.73;nan;99305.06;5066053;28;19936;-86
2021/12/05 11:36:23;;;;;;;;;;;;;;;5.74;nan;99297.06;5095639;28;19925;-88
2021/12/05 11:38:49;;;;;;;;;;;;;;;5.65;nan;99297.97;5100736;28;19920;-87
2021/12/05 11:41:21;;;;;;;;;;;;;;;5.78;nan;99294.13;5074182;28;19932;-87
2021/12/05 11:43:54;;;;;;;;;;;;;;;5.77;nan;99295.94;5079118;28;20291;-89
2021/12/05 11:46:36;;;;;;;;;;;;;;;5.84;nan;99278.63;5060056;28;19935;-87
2021/12/05 11:49:10;;;;;;;;;;;;;;;5.59;nan;99284.63;5068979;28;19916;-88
2021/12/05 11:51:56;;;;;;;;;;;;;;;5.53;nan;99288.69;5073148;28;20385;-87
2021/12/05 11:54:21;;;;;;;;;;;;;;;5.49;nan;99282.91;5090921;28;19927;-88
2021/12/05 11:56:58;;;;;;;;;;;;;;;5.40;nan;99285.59;5071718;28;19921;-87
2021/12/05 11:59:34;;;;;;;;;;;;;;;5.36;nan;99282.44;5076164;28;19970;-88
2021/12/05 12:02:14;;;;;;;;;;;;;;;5.37;nan;99291.97;5067330;28;19924;-87
2021/12/05 12:05:00;;;;;;;;;;;;;;;5.39;nan;99282.16;5065017;28;19967;-88
2021/12/05 12:07:35;;;;;;;;;;;;;;;5.19;nan;99275.38;5073696;28;19939;-88
2021/12/05 12:10:26;;;;;;;;;;;;;;;5.21;nan;99271.66;5071133;28;19920;-87
2021/12/05 12:12:53;;;;;;;;;;;;;;;5.27;nan;99262.38;5066600;28;20011;-88
2021/12/05 12:15:19;;;;;;;;;;;;;;;5.21;nan;99262.97;5083212;28;19922;-88
2021/12/05 12:17:46;;;;;;;;;;;;;;;5.19;nan;99267.53;5066112;28;19951;-88
2021/12/05 12:20:18;;;;;;;;;;;;;;;5.23;nan;99264.47;5068995;28;20398;-88
2021/12/05 12:22:44;;;;;;;;;;;;;;;5.23;nan;99259.22;5085601;28;19924;-87
2021/12/05 12:25:11;;;;;;;;;;;;;;;5.28;nan;99256.97;5095527;28;19916;-87
2021/12/05 12:27:40;;;;;;;;;;;;;;;5.23;nan;99266.25;5083496;28;19948;-88
2021/12/05 12:30:08;;;;;;;;;;;;;;;5.22;nan;99267.22;5106829;28;19966;-88
2021/12/05 12:32:36;;;;;;;;;;;;;;;5.25;nan;99266.94;5105198;28;19916;-89
2021/12/05 12:35:08;;;;;;;;;;;;;;;5.28;nan;99267.47;5073405;28;19931;-88
2021/12/05 12:37:51;;;;;;;;;;;;;;;5.21;nan;99271.66;5085513;28;19923;-88
2021/12/05 12:40:30;;;;;;;;;;;;;;;5.37;nan;99270.19;5064435;28;19992;-89
2021/12/05 12:42:55;;;;;;;;;;;;;;;5.33;nan;99272.25;5070048;28;19931;-89
2021/12/05 12:45:21;;;;;;;;;;;;;;;5.25;nan;99275.63;5068543;28;19916;-89
2021/12/05 12:47:52;;;;;;;;;;;;;;;5.30;nan;99268.13;5083660;28;19916;-88
2021/12/05 12:50:22;;;;;;;;;;;;;;;5.27;nan;99265.81;5085221;28;19971;-89
2021/12/05 12:53:10;;;;;;;;;;;;;;;5.38;nan;99274.44;5088441;28;19940;-86
2021/12/05 12:55:37;;;;;;;;;;;;;;;5.42;nan;99276.59;5086549;28;19938;-89
2021/12/05 12:58:05;;;;;;;;;;;;;;;5.38;nan;99280.50;5066982;28;19924;-87
2021/12/05 13:00:32;;;;;;;;;;;;;;;5.35;nan;99283.41;5080470;28;19924;-88
2021/12/05 13:03:02;;;;;;;;;;;;;;;5.39;nan;99279.53;5065160;28;19963;-88
2021/12/05 13:11:17;;;;;;;;;;;;;;;5.46;nan;99288.44;5041364;28;19928;-87
2021/12/05 13:13:46;;;;;;;;;;;;;;;5.47;nan;99284.03;5041243;28;19963;-88
2021/12/05 13:16:19;;;;;;;;;;;;;;;5.44;nan;99276.47;5042708;28;19925;-89
2021/12/05 13:18:49;;;;;;;;;;;;;;;5.55;nan;99281.47;5059545;28;19917;-88
2021/12/05 13:21:16;;;;;;;;;;;;;;;5.53;nan;99291.31;5041761;28;20295;-88
2021/12/05 13:23:50;;;;;;;;;;;;;;;5.63;nan;99280.75;5083891;28;20341;-88
2021/12/05 13:26:42;;;;;;;;;;;;;;;5.78;nan;99279.22;5069924;28;19943;-88
2021/12/05 13:29:15;;;;;;;;;;;;;;;5.86;nan;99281.06;5084778;28;19932;-89
2021/12/05 13:31:43;;;;;;;;;;;;;;;5.92;nan;99283.09;5084407;28;19973;-88
2021/12/05 13:34:19;;;;;;;;;;;;;;;5.91;nan;99286.69;5065970;28;19948;-87
2021/12/05 13:36:49;;;;;;;;;;;;;;;5.87;nan;99288.81;5066683;28;19920;-87
2021/12/05 13:39:33;;;;;;;;;;;;;;;5.83;nan;99284.00;5064550;28;19917;-88
2021/12/05 13:42:22;;;;;;;;;;;;;;;5.92;nan;99291.78;5067808;28;20603;-87
2021/12/05 13:45:06;;;;;;;;;;;;;;;5.90;nan;99290.28;5071305;28;19937;-88
2021/12/05 13:47:41;;;;;;;;;;;;;;;5.80;nan;99286.94;5048087;28;19920;-87
2021/12/05 13:50:12;;;;;;;;;;;;;;;5.56;nan;99283.13;5047500;28;20387;-88
2021/12/05 13:52:39;;;;;;;;;;;;;;;5.50;nan;99287.16;5082727;28;19927;-88
2021/12/05 13:55:23;;;;;;;;;;;;;;;5.40;nan;99296.09;5083311;28;19921;-87
2021/12/05 13:58:09;;;;;;;;;;;;;;;5.41;nan;99306.44;5078571;28;19956;-87
2021/12/05 14:00:42;;;;;;;;;;;;;;;5.38;nan;99301.47;5063137;28;19952;-89
2021/12/05 14:03:08;;;;;;;;;;;;;;;5.39;nan;99308.38;5066927;28;19920;-88
2021/12/05 14:06:02;;;;;;;;;;;;;;;5.44;nan;99310.56;5064286;28;19938;-88
2021/12/05 14:08:27;;;;;;;;;;;;;;;5.44;nan;99308.75;5064504;28;19936;-88
2021/12/05 14:10:52;;;;;;;;;;;;;;;5.38;nan;99308.50;5072961;28;19932;-89
2021/12/05 14:13:20;;;;;;;;;;;;;;;5.38;nan;99316.38;5079280;28;19921;-89
2021/12/05 14:15:46;;;;;;;;;;;;;;;5.30;nan;99314.50;5069957;28;20358;-90
2021/12/05 14:18:20;;;;;;;;;;;;;;;5.27;nan;99320.88;5061590;28;19955;-91
2021/12/05 14:20:51;;;;;;;;;;;;;;;5.27;nan;99320.88;5040149;28;20067;-91
2021/12/05 14:23:20;;;;;;;;;;;;;;;5.28;nan;99317.25;5065034;28;19927;-88
2021/12/05 14:25:45;;;;;;;;;;;;;;;5.29;nan;99320.69;5060669;28;20057;-90
2021/12/05 14:28:11;;;;;;;;;;;;;;;5.35;nan;99327.16;5060378;28;19925;-91
2021/12/05 14:30:38;;;;;;;;;;;;;;;5.30;nan;99320.56;5071207;28;19960;-90
2021/12/05 14:33:07;;;;;;;;;;;;;;;5.23;nan;99335.22;5071361;28;19920;-89
2021/12/05 14:35:34;;;;;;;;;;;;;;;5.18;nan;99341.88;5052552;28;19920;-91
2021/12/05 14:38:06;;;;;;;;;;;;;;;5.16;nan;99344.63;5073955;28;19920;-91
2021/12/05 14:40:32;;;;;;;;;;;;;;;5.05;nan;99350.91;5082514;28;19917;-91
2021/12/05 14:43:06;;;;;;;;;;;;;;;5.01;nan;99354.78;5067932;28;20368;-88
2021/12/05 14:45:35;;;;;;;;;;;;;;;4.98;nan;99352.47;5066734;28;19921;-87
2021/12/05 14:48:28;;;;;;;;;;;;;;;4.97;nan;99357.84;5069666;28;19920;-86
2021/12/05 14:50:53;;;;;;;;;;;;;;;4.93;nan;99365.16;5084173;28;19924;-87
2021/12/05 14:53:19;;;;;;;;;;;;;;;4.88;nan;99356.91;5073296;28;20608;-88
2021/12/05 14:55:46;;;;;;;;;;;;;;;4.77;nan;99354.47;5085210;28;20375;-87
2021/12/05 14:58:15;;;;;;;;;;;;;;;4.69;nan;99360.41;5068368;28;19924;-87
2021/12/05 15:00:49;;;;;;;;;;;;;;;4.61;nan;99368.16;5080131;28;19971;-88
2021/12/05 15:03:15;;;;;;;;;;;;;;;4.53;nan;99378.50;5073353;28;19939;-88
2021/12/05 15:05:51;;;;;;;;;;;;;;;4.53;nan;99375.88;5075939;28;19963;-86
2021/12/05 15:08:18;;;;;;;;;;;;;;;4.55;nan;99385.25;5066244;28;19982;-88
2021/12/05 15:10:44;;;;;;;;;;;;;;;4.59;nan;99391.84;5081337;28;19988;-87
2021/12/05 15:13:11;;;;;;;;;;;;;;;4.61;nan;99389.09;5069644;28;19964;-87
2021/12/05 15:15:46;;;;;;;;;;;;;;;4.62;nan;99395.97;5076114;28;19924;-86
2021/12/05 15:18:22;;;;;;;;;;;;;;;4.62;nan;99393.38;5064509;28;19917;-88
2021/12/05 15:20:47;;;;;;;;;;;;;;;4.64;nan;99402.72;5064427;28;19921;-88
2021/12/05 15:23:14;;;;;;;;;;;;;;;4.69;nan;99402.31;5065561;28;19924;-88
2021/12/05 15:25:40;;;;;;;;;;;;;;;4.70;nan;99409.22;5053974;28;19924;-87
2021/12/05 15:28:07;;;;;;;;;;;;;;;4.66;nan;99407.84;5080872;28;19943;-88
2021/12/05 15:30:39;;;;;;;;;;;;;;;4.71;nan;99410.03;5066855;28;19947;-88
2021/12/05 15:33:17;;;;;;;;;;;;;;;4.81;nan;99413.44;5064058;28;19923;-88
2021/12/05 15:35:43;;;;;;;;;;;;;;;4.74;nan;99422.84;5066076;28;19921;-88
2021/12/05 15:38:14;;;;;;;;;;;;;;;4.72;nan;99419.53;5058658;28;19917;-88
2021/12/05 15:40:42;;;;;;;;;;;;;;;4.67;nan;99425.19;5064172;28;19923;-88
2021/12/05 15:43:10;;;;;;;;;;;;;;;4.61;nan;99423.16;5073965;28;19917;-91
2021/12/05 15:45:36;;;;;;;;;;;;;;;4.58;nan;99428.69;5068061;28;19958;-91
2021/12/05 15:48:01;;;;;;;;;;;;;;;4.52;nan;99435.28;5064364;28;19904;-88
2021/12/05 15:53:30;;;;;;;;;;;;;;;4.53;nan;99430.84;5077290;28;19962;-90
2021/12/05 15:56:04;;;;;;;;;;;;;;;4.54;nan;99440.38;5080281;28;20376;-90
2021/12/05 15:58:31;;;;;;;;;;;;;;;4.50;nan;99441.63;5082896;28;20358;-89
2021/12/05 16:01:01;;;;;;;;;;;;;;;4.51;nan;99445.91;5084091;28;20291;-87
2021/12/05 16:03:37;;;;;;;;;;;;;;;4.45;nan;99453.31;5063332;28;19905;-89
2021/12/05 16:06:08;;;;;;;;;;;;;;;4.41;nan;99445.88;5075229;28;20044;-88
2021/12/05 16:08:36;;;;;;;;;;;;;;;4.34;nan;99450.88;5070728;28;19958;-93
2021/12/05 16:11:09;;;;;;;;;;;;;;;4.32;nan;99447.56;5049204;28;20134;-88
2021/12/05 16:13:41;;;;;;;;;;;;;;;4.26;nan;99445.47;5047702;28;19943;-87
2021/12/05 16:16:06;;;;;;;;;;;;;;;4.20;nan;99454.72;5071280;28;19924;-88
2021/12/05 16:18:33;;;;;;;;;;;;;;;4.20;nan;99459.13;5062043;28;20277;-88
2021/12/05 16:21:05;;;;;;;;;;;;;;;4.20;nan;99461.75;5060842;28;20003;-88
2021/12/05 16:23:31;;;;;;;;;;;;;;;4.19;nan;99460.09;5063181;28;19920;-89
2021/12/05 16:26:00;;;;;;;;;;;;;;;4.23;nan;99462.28;5061749;28;19921;-89
2021/12/05 16:28:46;;;;;;;;;;;;;;;4.21;nan;99464.22;5062541;28;20469;-88
2021/12/05 16:31:17;;;;;;;;;;;;;;;4.24;nan;99465.72;5062499;28;20059;-89
2021/12/05 16:33:45;;;;;;;;;;;;;;;4.21;nan;99468.63;5056277;28;20299;-87
2021/12/05 16:36:10;;;;;;;;;;;;;;;4.18;nan;99463.66;5068098;28;19924;-87
2021/12/05 16:38:37;;;;;;;;;;;;;;;4.16;nan;99462.97;5066050;28;19921;-88
2021/12/05 16:41:08;;;;;;;;;;;;;;;4.10;nan;99464.38;5068718;28;20449;-88
2021/12/05 16:43:35;;;;;;;;;;;;;;;4.01;nan;99465.19;5068132;28;19921;-86
2021/12/05 16:46:08;;;;;;;;;;;;;;;3.88;nan;99468.03;5067895;28;19925;-89
2021/12/05 16:48:34;;;;;;;;;;;;;;;3.78;nan;99473.25;5071821;28;19921;-88
2021/12/05 16:51:27;;;;;;;;;;;;;;;3.73;nan;99472.00;5061476;28;19932;-90
2021/12/05 16:53:58;;;;;;;;;;;;;;;3.77;nan;99470.78;5045105;28;19956;-90
2021/12/05 16:56:44;;;;;;;;;;;;;;;3.81;nan;99472.13;5061411;28;19927;-89
2021/12/05 16:59:20;;;;;;;;;;;;;;;3.81;nan;99480.84;5060848;28;20208;-88
2021/12/05 17:01:47;;;;;;;;;;;;;;;3.81;nan;99473.00;5062914;28;19924;-88
2021/12/05 17:04:13;;;;;;;;;;;;;;;3.85;nan;99473.53;5074452;28;19917;-89
2021/12/05 17:06:42;;;;;;;;;;;;;;;3.85;nan;99477.94;5066130;28;19931;-88
2021/12/05 17:09:17;;;;;;;;;;;;;;;3.79;nan;99474.06;5066588;28;20384;-89
2021/12/05 17:11:42;;;;;;;;;;;;;;;3.79;nan;99484.50;5061026;28;19917;-89
2021/12/05 17:14:17;;;;;;;;;;;;;;;3.87;nan;99486.50;5061618;28;19956;-88
2021/12/05 17:16:42;;;;;;;;;;;;;;;3.88;nan;99488.94;5060731;28;20596;-88
2021/12/05 17:19:09;;;;;;;;;;;;;;;3.85;nan;99486.59;5071374;28;19921;-87
2021/12/05 17:21:42;;;;;;;;;;;;;;;3.92;nan;99489.53;5060823;28;19940;-87
2021/12/05 17:24:10;;;;;;;;;;;;;;;3.83;nan;99496.38;5061711;28;19920;-88
2021/12/05 17:26:37;;;;;;;;;;;;;;;3.78;nan;99491.53;5060964;28;19920;-88
2021/12/05 17:29:08;;;;;;;;;;;;;;;3.77;nan;99492.50;5066741;28;19943;-88
2021/12/05 17:31:42;;;;;;;;;;;;;;;3.76;nan;99496.06;5073071;28;19916;-88
2021/12/05 17:34:10;;;;;;;;;;;;;;;3.81;nan;99498.28;5066370;28;19920;-88
2021/12/05 17:36:35;;;;;;;;;;;;;;;3.87;nan;99503.00;5060872;28;20419;-88
2021/12/05 17:39:05;;;;;;;;;;;;;;;3.83;nan;99497.19;5059945;28;19960;-87
2021/12/05 17:41:31;;;;;;;;;;;;;;;3.83;nan;99504.22;5061133;28;19947;-86
2021/12/05 17:43:57;;;;;;;;;;;;;;;3.89;nan;99506.31;5060861;28;19970;-87
2021/12/05 17:46:22;;;;;;;;;;;;;;;3.81;nan;99509.59;5076908;28;19927;-88
2021/12/05 17:48:48;;;;;;;;;;;;;;;3.80;nan;99515.78;5060617;28;20177;-88
2021/12/05 17:51:14;;;;;;;;;;;;;;;3.85;nan;99514.56;5072962;28;19966;-87
2021/12/05 17:53:40;;;;;;;;;;;;;;;3.72;nan;99515.63;5070724;28;19921;-86
2021/12/05 17:56:25;;;;;;;;;;;;;;;3.79;nan;99518.50;5079991;28;19996;-87
2021/12/05 17:59:04;;;;;;;;;;;;;;;3.80;nan;99518.38;5063344;28;20015;-88
2021/12/05 18:04:13;;;;;;;;;;;;;;;3.81;nan;99527.06;5060997;28;19924;-87
2021/12/05 18:06:38;;;;;;;;;;;;;;;3.78;nan;99527.31;5061095;28;19925;-88
2021/12/05 18:09:09;;;;;;;;;;;;;;;3.80;nan;99530.63;5055859;28;21543;-89
2021/12/05 18:11:35;;;;;;;;;;;;;;;3.77;nan;99534.34;5060025;28;20331;-89
2021/12/05 18:14:03;;;;;;;;;;;;;;;3.86;nan;99531.88;5066279;28;19916;-88
2021/12/05 18:16:31;;;;;;;;;;;;;;;3.76;nan;99544.94;5078837;28;19921;-88
2021/12/05 18:18:59;;;;;;;;;;;;;;;3.86;nan;99534.50;5068076;28;19956;-88
2021/12/05 18:21:25;;;;;;;;;;;;;;;3.79;nan;99547.28;5059860;28;19923;-88
2021/12/05 18:23:51;;;;;;;;;;;;;;;3.73;nan;99547.81;5059675;28;19920;-88
2021/12/05 18:26:16;;;;;;;;;;;;;;;3.65;nan;99551.09;5058539;28;19988;-87
2021/12/05 18:28:45;;;;;;;;;;;;;;;3.73;nan;99555.66;5059878;28;19947;-87
2021/12/05 18:31:16;;;;;;;;;;;;;;;3.76;nan;99555.38;5060830;28;19923;-88
2021/12/05 18:33:42;;;;;;;;;;;;;;;3.77;nan;99567.53;5059053;28;19917;-88
2021/12/05 18:36:07;;;;;;;;;;;;;;;3.84;nan;99563.41;5058915;28;19916;-86
2021/12/05 18:38:33;;;;;;;;;;;;;;;3.79;nan;99568.19;5061432;28;19928;-89
2021/12/05 18:41:03;;;;;;;;;;;;;;;3.75;nan;99559.78;5069716;28;19928;-86
2021/12/05 18:43:30;;;;;;;;;;;;;;;3.78;nan;99559.53;5062536;28;19927;-88
2021/12/05 18:45:56;;;;;;;;;;;;;;;3.75;nan;99559.78;5062121;28;19921;-87
2021/12/05 18:48:23;;;;;;;;;;;;;;;3.77;nan;99562.28;5060026;28;19931;-87
2021/12/05 18:50:52;;;;;;;;;;;;;;;3.75;nan;99562.41;5061405;28;19940;-87
2021/12/05 18:53:18;;;;;;;;;;;;;;;3.77;nan;99565.72;5060444;28;19928;-87
2021/12/05 18:55:44;;;;;;;;;;;;;;;3.86;nan;99568.50;5063353;28;19917;-87
2021/12/05 18:58:11;;;;;;;;;;;;;;;3.86;nan;99568.50;5064666;28;19920;-87
2021/12/05 19:04:19;;;;;;;;;;;;;;;3.87;nan;99572.78;5073090;28;19920;-87
2021/12/05 19:06:32;;;;;;;;;;;;;;;3.81;nan;99577.59;5064826;28;19930;-87
2021/12/05 19:11:48;;;;;;;;;;;;;;;3.73;nan;99600.94;5078131;28;20295;-87